createdAt,value
2023-04-10T00:01:00.307Z,6.93
2023-04-10T00:03:31.881Z,6.91
2023-04-10T00:06:03.073Z,6.87
2023-04-10T00:08:33.531Z,6.83
2023-04-10T00:11:04.294Z,6.81
2023-04-10T00:13:34.963Z,6.78
2023-04-10T00:16:05.994Z,6.75
2023-04-10T00:18:36.364Z,6.72
2023-04-10T00:21:08.031Z,6.70
2023-04-10T00:23:38.727Z,6.67
2023-04-10T00:26:09.450Z,6.69
2023-04-10T00:28:40.989Z,6.71
2023-04-10T00:31:11.790Z,6.74
2023-04-10T00:33:42.434Z,6.78
2023-04-10T00:36:13.395Z,6.78
2023-04-10T00:38:44.503Z,6.83
2023-04-10T00:41:15.214Z,6.87
2023-04-10T00:43:46.306Z,6.92
2023-04-10T00:46:17.732Z,6.95
2023-04-10T00:48:48.609Z,6.96
2023-04-10T00:51:20.979Z,6.96
2023-04-10T00:53:52.905Z,6.97
2023-04-10T00:56:25.441Z,7.01
2023-04-10T00:58:56.075Z,6.97
2023-04-10T01:01:27.110Z,6.99
2023-04-10T01:03:58.335Z,7.01
2023-04-10T01:06:46.557Z,7.04
2023-04-10T01:09:22.442Z,7.06
2023-04-10T01:11:55.194Z,7.11
2023-04-10T01:14:34.961Z,7.13
2023-04-10T01:17:09.116Z,7.15
2023-04-10T01:19:52.561Z,7.20
2023-04-10T01:22:25.089Z,7.20
2023-04-10T01:25:04.188Z,7.21
2023-04-10T01:27:44.619Z,7.22
2023-04-10T01:30:19.670Z,7.18
2023-04-10T01:32:51.758Z,7.16
2023-04-10T01:35:22.943Z,7.15
2023-04-10T01:37:55.049Z,7.13
2023-04-10T01:40:27.851Z,7.14
2023-04-10T01:43:01.316Z,7.12
2023-04-10T01:45:42.123Z,7.15
2023-04-10T01:48:13.752Z,7.19
2023-04-10T01:50:45.135Z,7.23
2023-04-10T01:53:16.585Z,7.26
2023-04-10T01:55:47.254Z,7.26
2023-04-10T01:58:18.752Z,7.28
2023-04-10T02:00:51.645Z,7.28
2023-04-10T02:03:22.636Z,7.32
2023-04-10T02:05:58.866Z,7.33
2023-04-10T02:08:33.195Z,7.34
2023-04-10T02:11:09.866Z,7.32
2023-04-10T02:13:41.471Z,7.33
2023-04-10T02:16:17.943Z,7.37
2023-04-10T02:18:49.141Z,7.39
2023-04-10T02:21:19.837Z,7.42
2023-04-10T02:23:51.448Z,7.41
2023-04-10T02:26:22.510Z,7.41
2023-04-10T02:28:53.995Z,7.38
2023-04-10T02:31:26.132Z,7.39
2023-04-10T02:33:57.979Z,7.40
2023-04-10T02:36:28.742Z,7.41
2023-04-10T02:38:59.746Z,7.42
2023-04-10T02:41:30.633Z,7.43
2023-04-10T02:44:02.600Z,7.42
2023-04-10T02:46:33.503Z,7.44
2023-04-10T02:49:04.863Z,7.43
2023-04-10T02:51:37.792Z,7.43
2023-04-10T02:54:09.162Z,7.44
2023-04-10T02:56:39.954Z,7.45
2023-04-10T02:59:10.818Z,7.46
2023-04-10T03:01:43.108Z,7.47
2023-04-10T03:04:13.969Z,7.46
2023-04-10T03:06:45.004Z,7.46
2023-04-10T03:09:15.689Z,7.48
2023-04-10T03:11:47.263Z,7.49
2023-04-10T03:14:18.865Z,7.49
2023-04-10T03:16:50.804Z,7.49
2023-04-10T03:19:26.961Z,7.48
2023-04-10T03:21:57.696Z,7.49
2023-04-10T03:24:29.412Z,7.49
2023-04-10T03:27:00.712Z,7.50
2023-04-10T03:29:31.506Z,7.49
2023-04-10T03:32:02.385Z,7.49
2023-04-10T03:34:34.096Z,7.49
2023-04-10T03:37:04.684Z,7.49
2023-04-10T03:39:35.412Z,7.46
2023-04-10T03:42:06.131Z,7.47
2023-04-10T03:44:37.726Z,7.48
2023-04-10T03:47:08.427Z,7.48
2023-04-10T03:49:39.581Z,7.46
2023-04-10T03:52:10.299Z,7.46
2023-04-10T03:54:43.068Z,7.47
2023-04-10T03:57:22.020Z,7.44
2023-04-10T03:59:53.436Z,7.41
2023-04-10T04:02:24.288Z,7.48
2023-04-10T04:04:57.686Z,7.52
2023-04-10T04:07:50.081Z,7.47
2023-04-10T04:10:41.616Z,7.48
2023-04-10T04:13:26.050Z,7.51
2023-04-10T04:16:11.935Z,7.51
2023-04-10T04:18:57.649Z,7.51
2023-04-10T04:21:34.692Z,7.53
2023-04-10T04:24:11.248Z,7.49
2023-04-10T04:27:17.356Z,7.53
2023-04-10T04:30:14.651Z,7.54
2023-04-10T04:33:05.334Z,7.52
2023-04-10T04:35:46.609Z,7.53
2023-04-10T04:38:52.837Z,7.56
2023-04-10T04:41:31.690Z,7.54
2023-04-10T04:44:25.312Z,7.53
2023-04-10T04:47:16.068Z,7.57
2023-04-10T04:50:12.252Z,7.55
2023-04-10T04:53:08.119Z,7.58
2023-04-10T04:56:14.428Z,7.60
2023-04-10T04:58:47.626Z,7.61
2023-04-10T05:01:31.891Z,7.61
2023-04-10T05:04:20.884Z,7.64
2023-04-10T05:07:12.600Z,7.61
2023-04-10T05:09:58.491Z,7.61
2023-04-10T05:12:43.942Z,7.66
2023-04-10T05:15:32.137Z,7.67
2023-04-10T05:18:25.826Z,7.69
2023-04-10T05:21:10.544Z,7.70
2023-04-10T05:23:55.917Z,7.68
2023-04-10T05:26:32.218Z,7.70
2023-04-10T05:29:35.561Z,7.73
2023-04-10T05:32:22.905Z,7.63
2023-04-10T05:35:23.140Z,7.77
2023-04-10T05:38:16.838Z,7.78
2023-04-10T05:41:07.858Z,7.74
2023-04-10T05:43:45.789Z,7.77
2023-04-10T05:46:27.935Z,7.79
2023-04-10T05:49:17.483Z,7.83
2023-04-10T05:52:08.247Z,7.83
2023-04-10T05:54:57.584Z,7.88
2023-04-10T05:57:31.257Z,7.89
2023-04-10T06:00:22.673Z,7.90
2023-04-10T06:03:30.770Z,7.93
2023-04-10T06:06:04.370Z,7.89
2023-04-10T06:08:35.229Z,7.85
2023-04-10T06:11:05.949Z,7.77
2023-04-10T06:13:36.700Z,7.83
2023-04-10T06:16:08.045Z,7.88
2023-04-10T06:18:40.830Z,7.88
2023-04-10T06:21:11.690Z,7.86
2023-04-10T06:23:42.828Z,7.87
2023-04-10T06:26:13.668Z,7.89
2023-04-10T06:28:45.270Z,7.91
2023-04-10T06:31:17.794Z,7.96
2023-04-10T06:33:49.086Z,7.96
2023-04-10T06:36:20.127Z,8.00
2023-04-10T06:38:54.278Z,8.05
2023-04-10T06:41:25.175Z,8.04
2023-04-10T06:43:58.123Z,8.07
2023-04-10T06:46:29.720Z,8.11
2023-04-10T06:49:00.728Z,8.17
2023-04-10T06:51:31.901Z,8.10
2023-04-10T06:54:02.646Z,8.17
2023-04-10T06:56:33.625Z,8.24
2023-04-10T06:59:04.354Z,8.29
2023-04-10T07:01:35.032Z,8.31
2023-04-10T07:04:06.295Z,8.35
2023-04-10T07:06:37.358Z,8.40
2023-04-10T07:09:08.254Z,8.41
2023-04-10T07:11:39.299Z,8.40
2023-04-10T07:14:11.423Z,8.39
2023-04-10T07:16:47.711Z,8.39
2023-04-10T07:19:20.575Z,8.41
2023-04-10T07:21:51.277Z,8.41
2023-04-10T07:24:22.967Z,8.46
2023-04-10T07:26:53.781Z,8.46
2023-04-10T07:29:24.445Z,8.48
2023-04-10T07:31:56.841Z,8.62
2023-04-10T07:34:27.655Z,8.63
2023-04-10T07:36:58.658Z,8.74
2023-04-10T07:39:29.483Z,8.80
2023-04-10T07:42:00.214Z,8.80
2023-04-10T07:44:31.795Z,8.83
2023-04-10T07:47:02.576Z,8.90
2023-04-10T07:49:33.713Z,8.91
2023-04-10T07:52:04.354Z,8.99
2023-04-10T07:54:35.589Z,9.07
2023-04-10T07:57:06.141Z,9.05
2023-04-10T07:59:36.733Z,9.13
2023-04-10T08:02:07.609Z,9.22
2023-04-10T08:04:38.958Z,9.31
2023-04-10T08:07:09.973Z,9.38
2023-04-10T08:09:40.915Z,9.40
2023-04-10T08:12:11.469Z,9.47
2023-04-10T08:14:42.352Z,9.55
2023-04-10T08:17:15.171Z,9.57
2023-04-10T08:19:45.955Z,9.61
2023-04-10T08:22:16.282Z,9.72
2023-04-10T08:24:47.505Z,9.89
2023-04-10T08:27:17.992Z,9.94
2023-04-10T08:29:48.819Z,10.05
2023-04-10T08:32:19.441Z,10.10
2023-04-10T08:34:51.663Z,10.15
2023-04-10T08:37:22.487Z,10.19
2023-04-10T08:39:53.229Z,10.23
2023-04-10T08:42:23.964Z,10.27
2023-04-10T08:44:54.742Z,10.32
2023-04-10T08:47:28.646Z,10.42
2023-04-10T08:50:00.409Z,10.55
2023-04-10T08:52:32.890Z,10.66
2023-04-10T08:55:07.636Z,10.75
2023-04-10T08:57:40.611Z,10.75
2023-04-10T09:02:47.768Z,10.99
2023-04-10T09:05:19.133Z,11.12
2023-04-10T09:07:49.700Z,11.18
2023-04-10T09:10:20.645Z,11.22
2023-04-10T09:12:52.019Z,11.22
2023-04-10T09:15:22.894Z,11.13
2023-04-10T09:18:01.170Z,11.10
2023-04-10T09:20:33.223Z,11.09
2023-04-10T09:23:04.412Z,11.10
2023-04-10T09:25:37.154Z,11.07
2023-04-10T09:28:08.687Z,11.13
2023-04-10T09:30:40.526Z,11.15
2023-04-10T09:33:25.295Z,11.25
2023-04-10T09:36:00.423Z,11.37
2023-04-10T09:38:31.602Z,11.54
2023-04-10T09:41:11.240Z,11.68
2023-04-10T09:43:44.090Z,11.77
2023-04-10T09:46:29.143Z,11.77
2023-04-10T09:49:01.963Z,11.80
2023-04-10T09:51:35.189Z,11.90
2023-04-10T09:54:06.477Z,12.17
2023-04-10T09:56:41.739Z,12.43
2023-04-10T09:59:16.303Z,12.64
2023-04-10T10:01:47.506Z,12.67
2023-04-10T10:04:20.053Z,12.66
2023-04-10T10:06:51.107Z,12.67
2023-04-10T10:09:22.009Z,12.72
2023-04-10T10:11:54.269Z,12.81
2023-04-10T10:14:29.283Z,12.95
2023-04-10T10:17:03.816Z,12.93
2023-04-10T10:19:38.809Z,12.93
2023-04-10T10:22:11.531Z,13.04
2023-04-10T10:24:48.022Z,13.21
2023-04-10T10:27:19.904Z,13.42
2023-04-10T10:29:51.553Z,13.40
2023-04-10T10:32:23.099Z,13.48
2023-04-10T10:34:54.424Z,13.67
2023-04-10T10:37:25.624Z,13.78
2023-04-10T10:40:03.573Z,13.80
2023-04-10T10:42:36.115Z,13.77
2023-04-10T10:45:11.519Z,13.80
2023-04-10T10:47:47.689Z,13.85
2023-04-10T10:50:18.559Z,13.95
2023-04-10T10:52:50.146Z,14.04
2023-04-10T10:55:39.048Z,14.21
2023-04-10T10:58:11.673Z,14.41
2023-04-10T11:01:00.517Z,14.56
2023-04-10T11:03:32.130Z,14.66
2023-04-10T11:06:04.276Z,14.80
2023-04-10T11:08:55.125Z,15.00
2023-04-10T11:11:27.769Z,15.02
2023-04-10T11:14:22.202Z,15.09
2023-04-10T11:16:52.931Z,15.12
2023-04-10T11:19:26.605Z,15.03
2023-04-10T11:22:04.777Z,15.02
2023-04-10T11:24:48.652Z,15.24
2023-04-10T11:27:32.392Z,15.30
2023-04-10T11:30:03.229Z,15.40
2023-04-10T11:32:42.906Z,15.53
2023-04-10T11:35:13.862Z,15.59
2023-04-10T11:37:44.566Z,15.73
2023-04-10T11:40:17.098Z,15.67
2023-04-10T11:42:48.458Z,15.81
2023-04-10T11:45:29.722Z,15.87
2023-04-10T11:48:01.525Z,15.85
2023-04-10T11:50:36.780Z,15.86
2023-04-10T11:53:20.336Z,16.09
2023-04-10T11:55:52.443Z,16.19
2023-04-10T11:58:27.016Z,16.31
2023-04-10T12:01:03.868Z,16.35
2023-04-10T12:03:37.819Z,16.49
2023-04-10T12:06:10.968Z,16.53
2023-04-10T12:08:43.023Z,16.42
2023-04-10T12:11:14.114Z,16.30
2023-04-10T12:13:44.749Z,16.11
2023-04-10T12:16:16.506Z,15.97
2023-04-10T12:18:47.397Z,15.87
2023-04-10T12:21:18.365Z,15.81
2023-04-10T12:23:48.840Z,15.77
2023-04-10T12:26:20.277Z,15.78
2023-04-10T12:28:54.593Z,15.88
2023-04-10T12:31:33.089Z,15.83
2023-04-10T12:34:05.681Z,15.72
2023-04-10T12:36:36.423Z,15.63
2023-04-10T12:39:07.643Z,15.71
2023-04-10T12:41:39.353Z,15.83
2023-04-10T12:44:10.735Z,15.99
2023-04-10T12:46:42.273Z,16.15
2023-04-10T12:49:13.999Z,16.27
2023-04-10T12:51:48.786Z,16.23
2023-04-10T12:54:33.566Z,16.21
2023-04-10T12:57:04.440Z,16.11
2023-04-10T12:59:35.453Z,15.97
2023-04-10T13:02:06.513Z,15.94
2023-04-10T13:04:37.307Z,15.86
2023-04-10T13:07:08.209Z,15.80
2023-04-10T13:09:38.812Z,15.73
2023-04-10T13:12:09.518Z,15.71
2023-04-10T13:14:40.202Z,15.80
2023-04-10T13:17:11.090Z,16.00
2023-04-10T13:19:42.291Z,16.12
2023-04-10T13:22:12.940Z,16.35
2023-04-10T13:24:44.102Z,16.54
2023-04-10T13:27:15.182Z,16.73
2023-04-10T13:29:45.998Z,16.83
2023-04-10T13:32:16.656Z,16.84
2023-04-10T13:34:47.954Z,16.97
2023-04-10T13:37:20.585Z,17.18
2023-04-10T13:39:51.435Z,17.31
2023-04-10T13:42:22.283Z,17.31
2023-04-10T13:44:52.941Z,17.04
2023-04-10T13:47:23.813Z,16.43
2023-04-10T13:53:24.815Z,15.66
2023-04-10T13:55:55.334Z,15.32
2023-04-10T13:58:27.186Z,15.12
2023-04-10T14:01:01.940Z,14.95
2023-04-10T14:03:32.952Z,14.84
2023-04-10T14:06:05.346Z,14.73
2023-04-10T14:08:36.067Z,14.61
2023-04-10T14:11:06.995Z,14.67
2023-04-10T14:13:39.414Z,14.68
2023-04-10T14:16:12.097Z,14.67
2023-04-10T14:18:42.980Z,14.64
2023-04-10T14:22:17.827Z,14.61
2023-04-10T14:24:52.610Z,14.61
2023-04-10T14:27:29.077Z,14.60
2023-04-10T14:30:02.186Z,14.63
2023-04-10T14:32:37.046Z,14.72
2023-04-10T14:35:11.380Z,14.71
2023-04-10T14:37:45.238Z,14.71
2023-04-10T14:40:17.860Z,14.80
2023-04-10T14:42:50.411Z,14.94
2023-04-10T14:45:23.226Z,15.04
2023-04-10T14:47:56.347Z,15.18
2023-04-10T14:50:29.728Z,15.15
2023-04-10T14:53:02.164Z,14.93
2023-04-10T14:55:35.132Z,14.81
2023-04-10T14:58:09.633Z,14.79
2023-04-10T15:00:45.377Z,14.74
2023-04-10T15:03:20.760Z,14.69
2023-04-10T15:06:04.505Z,14.74
2023-04-10T15:08:40.577Z,14.82
2023-04-10T15:11:16.320Z,14.95
2023-04-10T15:13:50.374Z,15.08
2023-04-10T15:16:24.759Z,15.16
2023-04-10T15:19:01.343Z,15.26
2023-04-10T15:21:34.764Z,15.36
2023-04-10T15:24:06.183Z,15.38
2023-04-10T15:26:44.671Z,15.42
2023-04-10T15:29:21.017Z,15.47
2023-04-10T15:31:56.793Z,15.42
2023-04-10T15:34:30.808Z,15.27
2023-04-10T15:37:03.055Z,15.22
2023-04-10T15:39:37.538Z,15.11
2023-04-10T15:42:14.232Z,15.10
2023-04-10T15:44:49.385Z,15.02
2023-04-10T15:47:23.853Z,14.97
2023-04-10T15:49:59.967Z,14.74
2023-04-10T15:52:34.771Z,14.55
2023-04-10T15:55:15.083Z,14.36
2023-04-10T15:57:49.897Z,14.20
2023-04-10T16:00:24.434Z,14.11
2023-04-10T16:02:58.725Z,14.03
2023-04-10T16:05:31.464Z,13.94
2023-04-10T16:08:07.824Z,13.87
2023-04-10T16:10:43.777Z,13.81
2023-04-10T16:13:18.221Z,13.75
2023-04-10T16:15:55.425Z,13.60
2023-04-10T16:18:30.079Z,13.53
2023-04-10T16:21:05.154Z,13.47
2023-04-10T16:23:39.511Z,13.42
2023-04-10T16:26:12.870Z,13.41
2023-04-10T16:28:48.765Z,13.41
2023-04-10T16:31:25.168Z,13.41
2023-04-10T16:33:58.163Z,13.40
2023-04-10T16:36:30.678Z,13.42
2023-04-10T16:39:05.438Z,13.42
2023-04-10T16:41:40.541Z,13.38
2023-04-10T16:44:17.484Z,13.38
2023-04-10T16:46:52.503Z,13.41
2023-04-10T16:49:27.630Z,13.43
2023-04-10T16:52:03.248Z,13.40
2023-04-10T16:54:36.460Z,13.42
2023-04-10T16:57:10.862Z,13.38
2023-04-10T16:59:46.073Z,13.32
2023-04-10T17:02:21.321Z,12.97
2023-04-10T17:04:56.813Z,12.62
2023-04-10T17:07:30.135Z,12.10
2023-04-10T17:10:02.824Z,11.61
2023-04-10T17:12:36.286Z,11.19
2023-04-10T17:15:09.312Z,10.94
2023-04-10T17:17:45.831Z,10.97
2023-04-10T17:24:56.088Z,11.14
2023-04-10T17:28:28.846Z,11.09
2023-04-10T17:36:00.825Z,11.00
2023-04-10T17:39:19.723Z,10.88
2023-04-10T17:45:57.057Z,10.84
2023-04-10T17:48:30.501Z,10.66
2023-04-10T17:51:05.555Z,10.65
2023-04-10T17:53:38.437Z,10.56
2023-04-10T17:56:18.920Z,10.50
2023-04-10T17:58:52.109Z,10.48
2023-04-10T18:01:30.437Z,10.46
2023-04-10T18:04:06.267Z,10.31
2023-04-10T18:06:39.093Z,10.22
2023-04-10T18:09:15.208Z,10.19
2023-04-10T18:11:52.263Z,10.19
2023-04-10T18:14:26.533Z,10.04
2023-04-10T18:16:59.429Z,10.07
2023-04-10T18:19:33.284Z,10.09
2023-04-10T18:22:09.326Z,10.13
2023-04-10T18:24:47.373Z,10.15
2023-04-10T18:27:20.036Z,10.04
2023-04-10T18:29:55.849Z,10.04
2023-04-10T18:32:31.332Z,10.03
2023-04-10T18:35:17.424Z,10.02
2023-04-10T18:37:51.509Z,9.99
2023-04-10T18:40:24.725Z,9.98
2023-04-10T18:42:59.541Z,9.95
2023-04-10T18:45:36.732Z,9.88
2023-04-10T18:48:09.822Z,9.81
2023-04-10T18:50:42.866Z,9.72
2023-04-10T18:53:15.950Z,9.66
2023-04-10T18:55:55.646Z,9.63
2023-04-10T18:58:29.148Z,9.62
2023-04-10T19:01:01.886Z,9.58
2023-04-10T19:03:35.633Z,9.54
2023-04-10T19:06:12.076Z,9.51
2023-04-10T19:08:45.419Z,9.45
2023-04-10T19:11:33.202Z,9.39
2023-04-10T19:14:08.634Z,9.36
2023-04-10T19:16:47.602Z,9.34
2023-04-10T19:19:20.741Z,9.32
2023-04-10T19:21:53.596Z,9.24
2023-04-10T19:24:26.789Z,9.10
2023-04-10T19:27:05.673Z,9.00
2023-04-10T19:29:39.582Z,8.90
2023-04-10T19:32:12.363Z,8.86
2023-04-10T19:34:45.052Z,8.80
2023-04-10T19:37:17.783Z,8.76
2023-04-10T19:39:50.606Z,8.65
2023-04-10T19:42:23.276Z,8.53
2023-04-10T19:44:56.241Z,8.42
2023-04-10T19:47:29.048Z,8.43
2023-04-10T19:50:09.747Z,8.41
2023-04-10T19:52:44.301Z,8.39
2023-04-10T19:55:18.800Z,8.39
2023-04-10T19:57:51.881Z,8.36
2023-04-10T20:00:27.716Z,8.34
2023-04-10T20:03:03.121Z,8.30
2023-04-10T20:05:36.740Z,8.26
2023-04-10T20:08:09.555Z,8.18
2023-04-10T20:10:43.771Z,8.13
2023-04-10T20:13:16.589Z,8.13
2023-04-10T20:15:50.050Z,8.11
2023-04-10T20:18:23.236Z,8.07
2023-04-10T20:20:56.641Z,7.99
2023-04-10T20:23:29.202Z,7.99
2023-04-10T20:26:01.955Z,7.92
2023-04-10T20:28:34.556Z,7.91
2023-04-10T20:31:07.865Z,7.91
2023-04-10T20:33:41.127Z,7.88
2023-04-10T20:36:14.043Z,7.87
2023-04-10T20:38:48.214Z,7.79
2023-04-10T20:41:21.137Z,7.77
2023-04-10T20:43:53.792Z,7.75
2023-04-10T20:46:27.922Z,7.65
2023-04-10T20:49:00.626Z,7.62
2023-04-10T20:51:37.725Z,7.56
2023-04-10T20:54:11.964Z,7.58
2023-04-10T20:56:49.023Z,7.57
2023-04-10T20:59:23.911Z,7.51
2023-04-10T21:01:56.842Z,7.52
2023-04-10T21:04:29.448Z,7.51
2023-04-10T21:07:02.223Z,7.50
2023-04-10T21:09:35.124Z,7.49
2023-04-10T21:12:08.086Z,7.47
2023-04-10T21:14:41.012Z,7.45
2023-04-10T21:17:13.728Z,7.41
2023-04-10T21:19:46.755Z,7.34
2023-04-10T21:22:19.337Z,7.32
2023-04-10T21:24:51.899Z,7.31
2023-04-10T21:27:25.163Z,7.25
2023-04-10T21:29:57.927Z,7.12
2023-04-10T21:32:30.714Z,7.04
2023-04-10T21:35:03.752Z,7.03
2023-04-10T21:37:36.503Z,7.03
2023-04-10T21:40:11.711Z,7.02
2023-04-10T21:42:44.279Z,6.90
2023-04-10T21:45:17.453Z,6.84
2023-04-10T21:47:50.075Z,6.82
2023-04-10T21:50:22.742Z,6.84
2023-04-10T21:52:55.462Z,6.81
2023-04-10T21:55:28.084Z,6.80
2023-04-10T21:58:00.682Z,6.79
2023-04-10T22:00:34.594Z,6.78
2023-04-10T22:03:08.916Z,6.74
2023-04-10T22:05:41.672Z,6.73
2023-04-10T22:08:14.641Z,6.72
2023-04-10T22:10:48.267Z,6.71
2023-04-10T22:13:30.172Z,6.70
2023-04-10T22:16:05.709Z,6.68
2023-04-10T22:18:40.483Z,6.65
2023-04-10T22:21:13.690Z,6.63
2023-04-10T22:23:46.434Z,6.59
2023-04-10T22:26:20.631Z,6.56
2023-04-10T22:28:53.601Z,6.56
2023-04-10T22:31:26.703Z,6.57
2023-04-10T22:33:59.351Z,6.58
2023-04-10T22:36:36.144Z,6.57
2023-04-10T22:39:09.022Z,6.56
2023-04-10T22:41:43.225Z,6.54
2023-04-10T22:44:16.257Z,6.51
2023-04-10T22:46:49.172Z,6.51
2023-04-10T22:49:21.819Z,6.46
2023-04-10T22:51:54.682Z,6.46
2023-04-10T22:54:27.455Z,6.43
2023-04-10T22:57:00.492Z,6.45
2023-04-10T22:59:33.140Z,6.46
2023-04-10T23:02:06.078Z,6.45
2023-04-10T23:04:39.021Z,6.42
2023-04-10T23:07:11.731Z,6.39
2023-04-10T23:09:44.641Z,6.38
2023-04-10T23:12:17.221Z,6.36
2023-04-10T23:14:50.050Z,6.36
2023-04-10T23:17:23.216Z,6.35
2023-04-10T23:19:56.120Z,6.33
2023-04-10T23:22:29.643Z,6.30
2023-04-10T23:25:02.462Z,6.30
2023-04-10T23:27:35.136Z,6.30
2023-04-10T23:30:10.719Z,6.30
2023-04-10T23:32:45.246Z,6.27
2023-04-10T23:35:18.354Z,6.26
2023-04-10T23:37:51.426Z,6.22
2023-04-10T23:40:25.144Z,6.18
2023-04-10T23:42:55.853Z,6.17
2023-04-10T23:45:28.803Z,6.10
2023-04-10T23:48:01.460Z,6.09
2023-04-10T23:50:35.050Z,6.07
2023-04-10T23:53:08.914Z,6.07
2023-04-10T23:55:42.593Z,6.04
2023-04-10T23:58:16.094Z,6.04
